Time;durP1;ratioP1;P1;durP2;ratioP2;P2;SDS_P1;SDS_P2;PMS_P1;PMS_P2;Temp;Humidity;BMP_temperature;BMP_pressure;BME280_temperature;BME280_humidity;BME280_pressure;Samples;Min_cycle;Max_cycle;Signal;HPM_P1;HPM_P2
2022/04/09 00:02:23;;;;;;;6.65;1.90;;;1.80;84.00;;;;;;5092929;28;20055;-68
2022/04/09 00:04:51;;;;;;;9.15;2.05;;;1.70;84.00;;;;;;5091510;28;20151;-67
2022/04/09 00:07:18;;;;;;;11.77;1.98;;;1.70;84.00;;;;;;5091567;28;20039;-69
2022/04/09 00:09:46;;;;;;;9.68;2.50;;;1.70;84.10;;;;;;5092682;28;20051;-68
2022/04/09 00:12:14;;;;;;;12.43;2.28;;;1.80;84.40;;;;;;5091561;28;20044;-68
2022/04/09 00:14:41;;;;;;;10.13;2.10;;;1.80;84.60;;;;;;5092694;28;20044;-68
2022/04/09 00:17:09;;;;;;;5.68;2.05;;;1.80;84.40;;;;;;5092863;28;20048;-68
2022/04/09 00:19:36;;;;;;;5.35;2.10;;;1.80;84.40;;;;;;5092775;28;20043;-67
2022/04/09 00:22:04;;;;;;;12.18;2.65;;;1.90;84.90;;;;;;5092955;28;20413;-68
2022/04/09 00:24:32;;;;;;;9.20;2.00;;;2.00;84.80;;;;;;5092526;28;20036;-68
2022/04/09 00:26:59;;;;;;;8.80;2.17;;;2.00;84.70;;;;;;5092549;28;20051;-68
2022/04/09 00:29:27;;;;;;;10.85;2.53;;;2.00;84.60;;;;;;5092584;28;20392;-68
2022/04/09 00:31:55;;;;;;;9.25;2.80;;;2.00;84.50;;;;;;5074343;28;20075;-68
2022/04/09 00:34:23;;;;;;;14.20;2.47;;;1.90;84.50;;;;;;5092301;28;20048;-68
2022/04/09 00:36:50;;;;;;;6.88;1.98;;;1.90;84.60;;;;;;5091212;28;20048;-67
2022/04/09 00:39:18;;;;;;;8.60;2.72;;;1.80;84.80;;;;;;5091070;28;20051;-68
2022/04/09 00:41:47;;;;;;;16.92;2.60;;;1.80;84.90;;;;;;5090914;28;20056;-67
2022/04/09 00:44:20;;;;;;;11.77;2.72;;;1.80;84.90;;;;;;5091956;28;20043;-67
2022/04/09 00:46:48;;;;;;;8.10;2.00;;;1.80;84.90;;;;;;5090475;28;20036;-68
2022/04/09 00:49:17;;;;;;;14.93;2.50;;;1.80;84.90;;;;;;5091644;28;20051;-69
2022/04/09 00:51:45;;;;;;;8.40;2.55;;;1.70;84.90;;;;;;5090882;28;20397;-68
2022/04/09 00:54:14;;;;;;;15.23;3.08;;;1.70;85.00;;;;;;5074169;28;20052;-67
2022/04/09 00:56:45;;;;;;;10.75;2.58;;;1.70;85.00;;;;;;5070386;28;20072;-67
2022/04/09 00:59:15;;;;;;;7.30;2.08;;;1.60;85.20;;;;;;5090505;28;20486;-67
2022/04/09 01:01:43;;;;;;;8.82;2.03;;;1.60;85.50;;;;;;5091161;28;20480;-67
2022/04/09 01:04:11;;;;;;;8.00;2.60;;;1.70;85.60;;;;;;5090876;28;20051;-67
2022/04/09 01:06:40;;;;;;;12.85;2.47;;;1.70;85.60;;;;;;5092244;28;20056;-67
2022/04/09 01:09:08;;;;;;;12.38;2.45;;;1.70;85.50;;;;;;5091303;28;20052;-68
2022/04/09 01:11:38;;;;;;;9.10;2.25;;;1.70;85.40;;;;;;5091126;28;20370;-66
2022/04/09 01:14:06;;;;;;;6.15;1.95;;;1.70;85.40;;;;;;5091939;28;20040;-67
2022/04/09 01:16:35;;;;;;;13.65;3.00;;;1.60;85.50;;;;;;5091959;28;20055;-67
2022/04/09 01:19:03;;;;;;;15.07;2.88;;;1.60;85.50;;;;;;5090660;28;20055;-68
2022/04/09 01:21:35;;;;;;;11.40;2.60;;;1.60;85.50;;;;;;5090311;28;20043;-68
2022/04/09 01:24:04;;;;;;;17.00;3.10;;;1.60;85.50;;;;;;5090513;28;20513;-68
2022/04/09 01:26:34;;;;;;;11.95;2.40;;;1.60;85.50;;;;;;5087375;28;20040;-67
2022/04/09 01:29:06;;;;;;;11.07;2.22;;;1.60;85.50;;;;;;5089728;28;20051;-67
2022/04/09 01:31:33;;;;;;;8.88;1.98;;;1.60;85.70;;;;;;5089394;28;20032;-67
2022/04/09 01:34:01;;;;;;;7.10;2.10;;;1.70;85.90;;;;;;5088561;28;20044;-67
2022/04/09 01:36:29;;;;;;;9.00;1.70;;;1.70;85.80;;;;;;5090553;28;20048;-67
2022/04/09 01:38:57;;;;;;;4.40;1.60;;;1.80;85.80;;;;;;5090531;28;20067;-67
2022/04/09 01:41:25;;;;;;;9.07;1.88;;;1.80;85.70;;;;;;5090483;28;20052;-67
2022/04/09 01:44:04;;;;;;;6.28;1.75;;;1.90;85.50;;;;;;5089960;28;20067;-67
2022/04/09 01:46:32;;;;;;;9.57;2.17;;;1.90;85.30;;;;;;5090004;28;20411;-67
2022/04/09 01:49:00;;;;;;;5.32;1.52;;;1.90;85.20;;;;;;5090113;28;20051;-67
2022/04/09 01:51:28;;;;;;;11.48;2.15;;;1.90;85.00;;;;;;5071779;28;20055;-67
2022/04/09 01:53:56;;;;;;;10.95;2.05;;;1.90;85.00;;;;;;5074010;28;20048;-67
2022/04/09 01:56:24;;;;;;;6.60;1.50;;;1.80;85.00;;;;;;5090316;28;20060;-67
2022/04/09 01:58:52;;;;;;;9.38;1.83;;;1.80;85.00;;;;;;5089946;28;20040;-67
2022/04/09 02:01:23;;;;;;;14.55;2.15;;;1.80;85.20;;;;;;5078048;28;20482;-67
2022/04/09 02:03:50;;;;;;;14.27;2.03;;;1.80;85.30;;;;;;5093909;28;20040;-67
2022/04/09 02:06:18;;;;;;;9.75;2.00;;;1.90;85.50;;;;;;5093134;28;20048;-67
2022/04/09 02:11:55;;;;;;;5.10;1.80;;;2.00;86.10;;;;;;4890845;23;20043;-69
2022/04/09 02:14:23;;;;;;;8.95;1.70;;;2.00;86.10;;;;;;4908030;29;20417;-68
2022/04/09 02:16:52;;;;;;;7.60;1.88;;;2.00;86.30;;;;;;4928424;29;20039;-69
2022/04/09 02:19:20;;;;;;;12.07;2.03;;;2.00;86.30;;;;;;4925012;29;20056;-69
2022/04/09 02:21:48;;;;;;;12.98;2.20;;;2.00;86.30;;;;;;4917826;29;20052;-68
2022/04/09 02:24:16;;;;;;;14.75;2.80;;;2.00;86.40;;;;;;4917754;29;20055;-68
2022/04/09 02:26:43;;;;;;;10.55;2.15;;;2.00;86.50;;;;;;4912008;29;20047;-68
2022/04/09 02:29:13;;;;;;;12.15;2.45;;;2.00;86.60;;;;;;4930468;29;20051;-68
2022/04/09 02:31:40;;;;;;;16.02;2.22;;;2.00;86.70;;;;;;4920949;29;20059;-68
2022/04/09 02:34:09;;;;;;;14.35;2.28;;;1.90;86.70;;;;;;4928223;29;20067;-68
2022/04/09 02:36:37;;;;;;;11.55;2.10;;;1.80;86.70;;;;;;4917112;29;20059;-68
2022/04/09 02:39:05;;;;;;;16.65;2.47;;;1.80;86.90;;;;;;4918674;29;20052;-69
2022/04/09 02:41:33;;;;;;;13.07;2.22;;;1.80;87.00;;;;;;4917857;29;20056;-69
2022/04/09 02:44:01;;;;;;;11.77;1.77;;;1.80;87.10;;;;;;4918656;29;20048;-69
2022/04/09 02:46:28;;;;;;;15.07;1.88;;;1.80;87.30;;;;;;4917020;29;20398;-68
2022/04/09 02:48:58;;;;;;;8.40;2.10;;;1.80;87.50;;;;;;4926636;29;20591;-70
2022/04/09 02:51:26;;;;;;;15.70;2.38;;;1.80;87.60;;;;;;4920007;29;20118;-69
2022/04/09 02:53:54;;;;;;;14.45;1.90;;;1.90;87.70;;;;;;4918393;29;20040;-69
2022/04/09 02:56:21;;;;;;;15.05;2.20;;;1.90;87.80;;;;;;4901675;29;20044;-69
2022/04/09 02:58:49;;;;;;;10.23;1.90;;;1.90;87.70;;;;;;4917124;29;20490;-68
2022/04/09 03:01:17;;;;;;;11.30;1.50;;;2.00;87.70;;;;;;4934592;29;20039;-69
2022/04/09 03:03:44;;;;;;;9.57;2.20;;;2.00;87.70;;;;;;4925649;29;20047;-68
2022/04/09 03:06:12;;;;;;;7.32;1.52;;;2.00;87.80;;;;;;4917633;29;20053;-69
2022/04/09 03:08:40;;;;;;;13.73;2.08;;;2.10;87.70;;;;;;4926658;29;20055;-69
2022/04/09 03:11:08;;;;;;;13.00;1.77;;;2.10;87.60;;;;;;4918210;29;20419;-68
2022/04/09 03:13:36;;;;;;;10.73;1.70;;;2.00;87.50;;;;;;4918405;29;20052;-68
2022/04/09 03:16:05;;;;;;;14.05;1.98;;;2.00;87.50;;;;;;4915418;29;20068;-69
2022/04/09 03:18:33;;;;;;;12.23;2.00;;;2.00;87.50;;;;;;4914974;29;20060;-68
2022/04/09 03:21:01;;;;;;;13.85;1.83;;;2.00;87.60;;;;;;4897919;29;20044;-68
2022/04/09 03:23:30;;;;;;;9.93;1.92;;;1.90;87.40;;;;;;4907828;29;20044;-69
2022/04/09 03:26:00;;;;;;;11.80;2.03;;;1.90;87.40;;;;;;4898550;29;20049;-68
2022/04/09 03:28:38;;;;;;;7.78;1.98;;;1.80;87.50;;;;;;4915138;29;20048;-68
2022/04/09 03:31:09;;;;;;;14.07;2.42;;;1.80;87.50;;;;;;4897908;29;20079;-69
2022/04/09 03:33:38;;;;;;;19.33;2.25;;;1.70;87.60;;;;;;4905898;29;20413;-68
2022/04/09 03:36:12;;;;;;;12.20;2.13;;;1.70;87.70;;;;;;4910320;29;20055;-68
2022/04/09 03:38:41;;;;;;;19.70;2.50;;;1.70;87.70;;;;;;4900578;29;20407;-68
2022/04/09 03:41:09;;;;;;;13.68;2.53;;;1.70;87.60;;;;;;4916465;29;20409;-69
2022/04/09 03:43:58;;;;;;;10.65;2.40;;;1.80;87.70;;;;;;4912211;29;20053;-69
2022/04/09 03:46:30;;;;;;;15.63;2.35;;;1.70;87.70;;;;;;4901882;29;20052;-68
2022/04/09 03:49:02;;;;;;;11.30;2.47;;;1.80;87.70;;;;;;4898598;29;20071;-69
2022/04/09 03:51:31;;;;;;;13.50;2.13;;;1.80;87.60;;;;;;4897458;29;20059;-69
2022/04/09 03:54:00;;;;;;;12.20;2.00;;;1.80;87.50;;;;;;4896795;29;20040;-69
2022/04/09 03:56:28;;;;;;;11.70;2.22;;;1.80;87.60;;;;;;4904835;29;20047;-69
2022/04/09 03:58:56;;;;;;;9.43;1.83;;;1.80;87.60;;;;;;4897294;29;20057;-69
2022/04/09 04:01:24;;;;;;;11.27;1.73;;;1.90;87.80;;;;;;4906934;29;20051;-69
2022/04/09 04:03:54;;;;;;;13.95;2.55;;;1.90;87.80;;;;;;4882590;29;20060;-68
2022/04/09 04:06:23;;;;;;;15.05;2.05;;;2.00;87.50;;;;;;4899655;29;20041;-68
2022/04/09 04:08:52;;;;;;;11.68;2.13;;;2.00;87.50;;;;;;4899465;29;20057;-68
2022/04/09 04:11:22;;;;;;;17.05;1.83;;;2.10;87.40;;;;;;4897173;29;20047;-68
2022/04/09 04:13:51;;;;;;;14.27;1.95;;;2.20;87.30;;;;;;4915423;29;20056;-68
2022/04/09 04:16:21;;;;;;;17.33;2.35;;;2.20;87.10;;;;;;4911110;29;20051;-69
2022/04/09 04:18:49;;;;;;;10.55;1.98;;;2.20;86.90;;;;;;4889537;29;20056;-69
2022/04/09 04:21:19;;;;;;;8.13;2.10;;;2.30;86.80;;;;;;4898056;29;20056;-68
2022/04/09 04:23:55;;;;;;;16.30;2.28;;;2.30;86.80;;;;;;4914639;29;20501;-68
2022/04/09 04:26:24;;;;;;;13.00;2.10;;;2.30;86.80;;;;;;4914257;29;20056;-67
2022/04/09 04:28:57;;;;;;;;;;;2.30;86.80;;;;;;4902954;29;20064;-68
2022/04/09 04:31:26;;;;;;;12.27;2.92;;;2.40;86.70;;;;;;4904328;29;19923;-68
2022/04/09 04:33:55;;;;;;;11.90;2.08;;;2.40;86.60;;;;;;4914693;29;20409;-67
2022/04/09 04:36:24;;;;;;;11.15;2.05;;;2.40;86.50;;;;;;4915191;29;20075;-68
2022/04/09 04:38:52;;;;;;;10.65;2.35;;;2.40;86.40;;;;;;4915461;29;20052;-67
2022/04/09 04:41:20;;;;;;;13.60;2.00;;;2.50;86.40;;;;;;4905278;29;20045;-68
2022/04/09 04:43:51;;;;;;;6.68;2.05;;;2.50;86.30;;;;;;4906457;29;20410;-68
2022/04/09 04:46:23;;;;;;;13.95;2.00;;;2.50;86.20;;;;;;4915038;29;20044;-68
2022/04/09 04:48:51;;;;;;;11.00;1.67;;;2.50;86.10;;;;;;4913413;29;20398;-68
2022/04/09 04:51:22;;;;;;;18.58;1.90;;;2.50;86.10;;;;;;4916125;29;20306;-68
2022/04/09 04:53:50;;;;;;;11.52;1.80;;;2.50;86.00;;;;;;4898671;29;20053;-68
2022/04/09 04:56:19;;;;;;;12.35;1.70;;;2.50;85.90;;;;;;4896357;29;20367;-67
2022/04/09 04:58:52;;;;;;;13.52;1.80;;;2.50;85.70;;;;;;4896231;29;20044;-68
2022/04/09 05:01:20;;;;;;;13.02;1.50;;;2.50;85.70;;;;;;4898280;29;20044;-68
2022/04/09 05:03:53;;;;;;;12.50;1.92;;;2.50;85.50;;;;;;4906375;29;20399;-67
2022/04/09 05:06:25;;;;;;;13.60;1.73;;;2.50;85.40;;;;;;4914800;29;20044;-68
2022/04/09 05:08:54;;;;;;;10.45;1.95;;;2.40;85.30;;;;;;4914539;29;20044;-68
2022/04/09 05:11:29;;;;;;;12.60;1.67;;;2.40;85.20;;;;;;4914019;29;20060;-70
2022/04/09 05:13:59;;;;;;;10.57;1.92;;;2.40;85.20;;;;;;4896511;29;20490;-68
2022/04/09 05:16:29;;;;;;;11.63;1.90;;;2.30;85.10;;;;;;4869214;29;20059;-69
2022/04/09 05:19:02;;;;;;;;;;;2.30;85.10;;;;;;4914959;29;20548;-69
2022/04/09 05:21:32;;;;;;;8.68;1.55;;;2.30;85.10;;;;;;4914721;29;19974;-68
2022/04/09 05:24:00;;;;;;;10.90;1.40;;;2.30;85.00;;;;;;4913375;29;20048;-68
2022/04/09 05:26:28;;;;;;;11.00;2.08;;;2.30;85.00;;;;;;4900809;29;20055;-68
2022/04/09 05:28:56;;;;;;;23.48;2.10;;;2.30;85.00;;;;;;4914567;29;20051;-68
2022/04/09 05:31:27;;;;;;;10.13;1.63;;;2.20;85.00;;;;;;4914587;29;20494;-69
2022/04/09 05:33:56;;;;;;;8.73;1.88;;;2.20;85.10;;;;;;4913320;29;20055;-68
2022/04/09 05:36:27;;;;;;;8.20;1.40;;;2.10;85.10;;;;;;4893209;29;20045;-68
2022/04/09 05:38:58;;;;;;;9.73;1.73;;;2.10;85.10;;;;;;4906425;29;20401;-68
2022/04/09 05:41:27;;;;;;;15.45;1.70;;;2.10;85.20;;;;;;4918702;29;20044;-68
2022/04/09 05:43:56;;;;;;;9.15;1.55;;;2.00;85.20;;;;;;4918289;29;20063;-68
2022/04/09 05:46:24;;;;;;;11.77;1.60;;;2.00;85.40;;;;;;4901479;29;21349;-68
2022/04/09 05:48:52;;;;;;;14.40;1.60;;;2.00;85.50;;;;;;4894128;29;20067;-68
2022/04/09 05:51:20;;;;;;;15.32;1.83;;;2.20;85.40;;;;;;4906500;29;20044;-68
2022/04/09 05:53:52;;;;;;;12.13;1.70;;;2.20;85.20;;;;;;4905981;29;20053;-68
2022/04/09 05:56:23;;;;;;;9.18;1.17;;;2.10;85.10;;;;;;4882285;29;20052;-67
2022/04/09 05:58:51;;;;;;;11.95;2.00;;;2.10;85.10;;;;;;4918042;29;20051;-68
2022/04/09 06:01:39;;;;;;;11.00;1.17;;;2.10;85.00;;;;;;4904496;29;20052;-68
2022/04/09 06:04:09;;;;;;;7.45;1.80;;;2.10;85.00;;;;;;4915755;29;20048;-67
2022/04/09 06:06:37;;;;;;;8.02;1.67;;;2.20;85.00;;;;;;4911251;29;20044;-67
2022/04/09 06:09:09;;;;;;;14.35;1.90;;;2.30;84.80;;;;;;4911693;29;20059;-67
2022/04/09 06:11:52;;;;;;;6.20;1.50;;;2.30;84.70;;;;;;4907631;29;20045;-67
2022/04/09 06:14:26;;;;;;;4.70;2.05;;;2.40;84.50;;;;;;4906550;29;20052;-68
2022/04/09 06:16:58;;;;;;;2.25;0.88;;;2.40;84.40;;;;;;4908613;29;20057;-67
2022/04/09 06:19:27;;;;;;;9.38;1.23;;;2.50;84.30;;;;;;4899924;29;20067;-68
2022/04/09 06:21:56;;;;;;;7.78;1.58;;;2.50;84.10;;;;;;4900872;29;20036;-67
2022/04/09 06:24:25;;;;;;;9.35;1.65;;;2.50;84.00;;;;;;4907248;29;20048;-67
2022/04/09 06:26:54;;;;;;;12.88;1.52;;;2.40;84.00;;;;;;4915834;29;20063;-68
2022/04/09 06:29:23;;;;;;;9.35;1.90;;;2.40;84.00;;;;;;4917572;29;20052;-67
2022/04/09 06:31:54;;;;;;;10.10;1.52;;;2.30;84.20;;;;;;4914354;29;20056;-67
2022/04/09 06:34:22;;;;;;;10.00;1.67;;;2.40;84.40;;;;;;4907331;29;20112;-67
2022/04/09 06:36:52;;;;;;;11.18;1.52;;;2.50;84.50;;;;;;4915640;29;20502;-67
2022/04/09 06:39:20;;;;;;;16.83;2.15;;;2.60;84.50;;;;;;4917355;29;20047;-68
2022/04/09 06:41:52;;;;;;;9.07;1.65;;;2.70;84.70;;;;;;4899606;29;20052;-68
2022/04/09 06:44:34;;;;;;;10.82;1.20;;;2.70;84.70;;;;;;4880916;29;20055;-68
2022/04/09 06:47:11;;;;;;;10.52;1.77;;;2.80;84.70;;;;;;4897149;29;20052;-67
2022/04/09 06:49:58;;;;;;;11.00;1.70;;;2.80;84.60;;;;;;4915164;29;20067;-67
2022/04/09 06:52:30;;;;;;;12.18;1.92;;;2.90;84.60;;;;;;4903695;29;20056;-67
2022/04/09 06:55:09;;;;;;;12.07;2.25;;;2.90;84.60;;;;;;4916914;29;20063;-67
2022/04/09 06:57:41;;;;;;;12.35;2.40;;;3.00;84.50;;;;;;4909627;29;20045;-67
2022/04/09 07:00:14;;;;;;;14.05;2.08;;;3.10;84.60;;;;;;4917116;29;20052;-68
2022/04/09 07:02:42;;;;;;;11.63;1.65;;;3.20;84.50;;;;;;4885070;29;20045;-67
2022/04/09 07:05:10;;;;;;;11.93;2.22;;;3.20;84.40;;;;;;4910865;29;20402;-67
2022/04/09 07:07:38;;;;;;;9.45;1.95;;;3.30;84.30;;;;;;4914164;29;20048;-67
2022/04/09 07:10:10;;;;;;;10.30;1.83;;;3.30;84.20;;;;;;4903025;29;20044;-67
2022/04/09 07:12:39;;;;;;;12.00;1.80;;;3.60;84.20;;;;;;4899414;29;20044;-67
2022/04/09 07:15:07;;;;;;;16.92;2.55;;;3.80;84.10;;;;;;4900259;29;20685;-67
2022/04/09 07:17:36;;;;;;;10.73;1.52;;;4.00;83.40;;;;;;4906272;29;20063;-67
2022/04/09 07:20:06;;;;;;;13.27;2.00;;;4.10;83.00;;;;;;4898985;29;20060;-67
2022/04/09 07:22:35;;;;;;;8.85;1.65;;;4.20;82.90;;;;;;4917558;29;20059;-67
2022/04/09 07:25:04;;;;;;;6.10;1.35;;;4.30;82.80;;;;;;4915659;29;20498;-67
2022/04/09 07:27:43;;;;;;;10.70;2.10;;;4.30;81.80;;;;;;4902709;29;20052;-67
2022/04/09 07:30:13;;;;;;;11.85;2.13;;;4.30;81.70;;;;;;4897709;29;20063;-67
2022/04/09 07:32:41;;;;;;;12.00;2.13;;;4.30;81.70;;;;;;4899967;29;20410;-68
2022/04/09 07:35:09;;;;;;;8.27;1.67;;;4.30;81.70;;;;;;4899856;29;20057;-67
2022/04/09 07:37:47;;;;;;;14.68;1.65;;;4.40;81.60;;;;;;4912046;29;20048;-67
2022/04/09 07:40:15;;;;;;;8.23;1.80;;;4.50;81.60;;;;;;4915814;29;20614;-67
2022/04/09 07:42:44;;;;;;;11.18;2.15;;;4.50;81.70;;;;;;4909199;29;20040;-67
2022/04/09 07:45:14;;;;;;;11.43;1.95;;;4.60;81.70;;;;;;4916377;29;20048;-67
2022/04/09 07:47:43;;;;;;;13.85;2.28;;;4.70;81.60;;;;;;4904339;29;20044;-67
2022/04/09 07:50:11;;;;;;;12.30;1.77;;;4.70;81.50;;;;;;4909357;29;20513;-67
2022/04/09 07:52:42;;;;;;;8.05;1.98;;;4.80;81.50;;;;;;4898416;29;20434;-67
2022/04/09 07:55:17;;;;;;;10.65;2.28;;;4.80;81.20;;;;;;4876542;29;20052;-67
2022/04/09 07:57:52;;;;;;;8.73;1.92;;;4.80;80.80;;;;;;4911355;29;20051;-68
2022/04/09 08:00:22;;;;;;;8.00;1.58;;;4.80;81.10;;;;;;4896674;29;20053;-67
2022/04/09 08:02:49;;;;;;;13.85;2.20;;;4.80;80.50;;;;;;4899319;29;20406;-67
2022/04/09 08:05:18;;;;;;;6.95;1.40;;;4.90;79.80;;;;;;4908070;29;20067;-68
2022/04/09 08:07:49;;;;;;;11.40;1.95;;;5.00;79.40;;;;;;4901649;29;20039;-67
2022/04/09 08:10:18;;;;;;;9.57;1.55;;;5.00;79.60;;;;;;4899128;29;20049;-66
2022/04/09 08:12:48;;;;;;;8.88;1.70;;;5.00;79.40;;;;;;4905871;29;20063;-67
2022/04/09 08:15:19;;;;;;;7.70;2.45;;;5.00;78.90;;;;;;4906985;29;20513;-67
2022/04/09 08:17:49;;;;;;;12.77;2.72;;;4.90;78.70;;;;;;4908851;29;20063;-68
2022/04/09 08:20:19;;;;;;;4.97;1.38;;;4.90;78.70;;;;;;4908862;29;20051;-67
2022/04/09 08:22:49;;;;;;;10.50;2.17;;;4.90;78.90;;;;;;4908287;29;20040;-67
2022/04/09 08:25:18;;;;;;;10.40;1.70;;;5.00;79.10;;;;;;4904813;29;20138;-67
2022/04/09 08:27:49;;;;;;;9.65;1.70;;;5.10;79.50;;;;;;4916646;29;20060;-67
2022/04/09 08:30:17;;;;;;;7.07;1.50;;;5.30;79.50;;;;;;4914391;29;20048;-67
2022/04/09 08:32:45;;;;;;;14.77;2.00;;;5.40;79.20;;;;;;4912989;29;20383;-67
2022/04/09 08:35:13;;;;;;;8.52;1.92;;;5.50;78.70;;;;;;4908362;29;20040;-67
2022/04/09 08:37:41;;;;;;;13.48;2.90;;;5.70;79.00;;;;;;4916187;29;20401;-68
2022/04/09 08:40:14;;;;;;;20.75;3.15;;;5.80;79.00;;;;;;4914860;29;20076;-67
2022/04/09 08:42:42;;;;;;;17.35;2.53;;;6.00;79.00;;;;;;4911027;29;20055;-67
2022/04/09 08:45:10;;;;;;;12.25;2.72;;;6.10;78.60;;;;;;4913457;29;20059;-67
2022/04/09 08:47:41;;;;;;;15.30;2.83;;;6.30;77.70;;;;;;4913959;29;20486;-67
2022/04/09 08:50:14;;;;;;;14.88;2.53;;;6.30;77.80;;;;;;4897751;29;20422;-68
2022/04/09 08:52:43;;;;;;;8.55;1.83;;;6.60;77.10;;;;;;4916414;29;20052;-67
2022/04/09 08:55:12;;;;;;;12.77;1.85;;;6.70;76.00;;;;;;4911846;29;20047;-67
2022/04/09 08:57:41;;;;;;;15.85;2.28;;;6.70;75.60;;;;;;4904937;29;20051;-68
2022/04/09 09:00:13;;;;;;;13.88;2.40;;;6.70;75.10;;;;;;4904369;29;20056;-68
2022/04/09 09:02:58;;;;;;;16.25;2.83;;;6.70;75.30;;;;;;4908305;29;20744;-67
2022/04/09 09:05:37;;;;;;;8.95;2.13;;;6.80;75.40;;;;;;4912869;29;20405;-67
2022/04/09 09:08:09;;;;;;;16.00;2.08;;;7.00;74.40;;;;;;4910827;29;20414;-67
2022/04/09 09:10:38;;;;;;;5.60;1.30;;;7.10;72.20;;;;;;4898761;29;20049;-67
2022/04/09 09:13:05;;;;;;;9.30;1.73;;;7.20;71.40;;;;;;4899058;29;20386;-67
2022/04/09 09:15:48;;;;;;;12.68;1.85;;;7.30;70.20;;;;;;4916001;29;20047;-68
2022/04/09 09:18:23;;;;;;;17.13;2.30;;;7.30;69.70;;;;;;4914091;29;20167;-67
2022/04/09 09:20:52;;;;;;;12.85;2.03;;;7.30;67.20;;;;;;4916118;29;20036;-67
2022/04/09 09:23:24;;;;;;;13.25;1.95;;;7.20;67.30;;;;;;4912940;29;20418;-68
2022/04/09 09:25:54;;;;;;;13.52;1.90;;;7.10;67.80;;;;;;4896012;29;20525;-67
2022/04/09 09:28:30;;;;;;;12.55;2.08;;;7.10;68.70;;;;;;4896011;29;20514;-67
2022/04/09 09:30:59;;;;;;;10.90;1.67;;;7.10;68.90;;;;;;4897202;29;20403;-67
2022/04/09 09:33:28;;;;;;;9.55;1.42;;;7.30;68.80;;;;;;4915779;29;20130;-68
2022/04/09 09:36:17;;;;;;;9.25;1.40;;;7.30;67.80;;;;;;4915604;29;20509;-68
2022/04/09 09:38:45;;;;;;;12.13;1.40;;;7.40;67.40;;;;;;4915437;29;20398;-68
2022/04/09 09:41:23;;;;;;;7.60;1.50;;;7.50;65.50;;;;;;4907550;29;20078;-67
2022/04/09 09:44:05;;;;;;;12.55;1.88;;;7.40;65.30;;;;;;4898493;29;20060;-67
2022/04/09 09:46:34;;;;;;;12.40;2.10;;;7.30;64.90;;;;;;4910108;29;20056;-68
2022/04/09 09:49:02;;;;;;;14.85;1.65;;;7.30;65.90;;;;;;4913927;29;20056;-67
2022/04/09 09:51:29;;;;;;;9.60;1.60;;;7.50;66.00;;;;;;4914347;29;20052;-68
2022/04/09 09:54:11;;;;;;;9.10;1.63;;;7.60;65.30;;;;;;4900946;29;20061;-68
2022/04/09 09:56:41;;;;;;;5.00;1.08;;;7.60;64.60;;;;;;4908877;29;20044;-68
2022/04/09 09:59:14;;;;;;;8.32;1.40;;;7.70;62.90;;;;;;4911796;29;20478;-67
2022/04/09 10:01:44;;;;;;;8.02;1.85;;;7.90;61.60;;;;;;4909905;29;20522;-68
2022/04/09 10:04:12;;;;;;;9.88;1.88;;;8.20;61.10;;;;;;4906909;29;20048;-68
2022/04/09 10:06:43;;;;;;;6.57;1.45;;;8.30;60.30;;;;;;4898536;29;20052;-68
2022/04/09 10:09:16;;;;;;;7.57;1.50;;;8.30;60.10;;;;;;4907892;29;20052;-67
2022/04/09 10:11:49;;;;;;;12.20;1.38;;;8.30;59.70;;;;;;4912025;29;20044;-67
2022/04/09 10:14:23;;;;;;;;;;;8.10;60.10;;;;;;4914080;29;20067;-67
2022/04/09 10:16:53;;;;;;;;;;;7.90;59.50;;;;;;4899043;29;19923;-67
2022/04/09 10:19:23;;;;;;;11.45;1.20;;;7.80;59.00;;;;;;4915195;29;19946;-66
2022/04/09 10:21:51;;;;;;;6.15;1.33;;;8.00;59.20;;;;;;4915496;29;20056;-66
2022/04/09 10:24:25;;;;;;;5.38;0.80;;;8.20;57.60;;;;;;4905180;29;20056;-67
2022/04/09 10:26:54;;;;;;;5.38;1.20;;;8.30;54.40;;;;;;4900477;29;20514;-67
2022/04/09 10:29:22;;;;;;;6.18;0.70;;;8.30;52.40;;;;;;4909594;29;20048;-66
2022/04/09 10:31:51;;;;;;;5.78;0.95;;;8.30;51.90;;;;;;4912181;29;20052;-67
2022/04/09 10:34:20;;;;;;;5.60;1.20;;;8.50;52.00;;;;;;4898877;29;20457;-67
2022/04/09 10:36:48;;;;;;;6.35;1.20;;;8.60;52.70;;;;;;4898862;29;20060;-67
2022/04/09 10:39:19;;;;;;;8.30;1.15;;;8.60;56.60;;;;;;4913825;29;20190;-67
2022/04/09 10:41:47;;;;;;;12.75;1.60;;;8.30;58.80;;;;;;4911817;29;20052;-67
2022/04/09 10:44:34;;;;;;;7.85;1.35;;;8.00;60.20;;;;;;4899561;29;20057;-68
2022/04/09 10:47:04;;;;;;;7.25;1.08;;;7.70;62.40;;;;;;4898607;29;20052;-66
2022/04/09 10:49:31;;;;;;;13.02;1.88;;;7.50;63.20;;;;;;4914460;29;20048;-66
2022/04/09 10:52:03;;;;;;;7.63;1.70;;;7.30;63.80;;;;;;4909686;29;20056;-67
2022/04/09 10:54:32;;;;;;;9.15;1.70;;;7.30;64.40;;;;;;4906714;29;20048;-67
2022/04/09 10:57:10;;;;;;;5.72;1.30;;;7.30;64.90;;;;;;4918503;29;20047;-67
2022/04/09 10:59:38;;;;;;;8.55;1.50;;;7.30;65.10;;;;;;4903970;29;20045;-68
2022/04/09 11:02:06;;;;;;;4.57;1.10;;;7.30;65.00;;;;;;4886200;29;20064;-67
2022/04/09 11:04:36;;;;;;;5.32;1.10;;;7.50;65.10;;;;;;4915395;29;20048;-67
2022/04/09 11:07:14;;;;;;;5.75;1.20;;;7.70;64.00;;;;;;4914324;29;20068;-67
2022/04/09 11:09:57;;;;;;;7.70;1.45;;;7.80;62.00;;;;;;4898317;29;20056;-67
2022/04/09 11:12:28;;;;;;;7.53;1.10;;;7.80;62.10;;;;;;4897964;29;20073;-67
2022/04/09 11:15:10;;;;;;;11.68;1.50;;;7.90;61.80;;;;;;4902512;29;20410;-67
2022/04/09 11:17:43;;;;;;;5.25;1.10;;;8.10;62.10;;;;;;4914227;29;20529;-67
2022/04/09 11:20:13;;;;;;;8.05;1.50;;;8.30;62.00;;;;;;4913806;29;20036;-67
2022/04/09 11:22:43;;;;;;;17.38;1.77;;;8.50;61.50;;;;;;4899072;29;20067;-67
2022/04/09 11:25:21;;;;;;;9.90;1.90;;;8.70;61.00;;;;;;4899223;29;20049;-67
2022/04/09 11:27:51;;;;;;;9.48;2.47;;;9.00;60.90;;;;;;4898060;29;20049;-67
2022/04/09 11:30:19;;;;;;;8.63;1.40;;;9.30;59.10;;;;;;4917202;29;20052;-67
2022/04/09 11:32:47;;;;;;;7.15;1.50;;;9.50;58.80;;;;;;4910239;29;20068;-67
2022/04/09 11:35:17;;;;;;;10.35;1.67;;;9.70;58.20;;;;;;4897824;29;20514;-68
2022/04/09 11:37:50;;;;;;;8.93;1.50;;;9.80;56.80;;;;;;4914017;29;20056;-67
2022/04/09 11:40:20;;;;;;;10.63;1.50;;;9.80;56.00;;;;;;4898826;29;20053;-68
2022/04/09 11:42:50;;;;;;;6.43;1.60;;;9.80;56.20;;;;;;4906513;29;20044;-67
2022/04/09 11:45:29;;;;;;;9.52;1.70;;;9.70;55.10;;;;;;4915702;29;20056;-67
2022/04/09 11:47:58;;;;;;;12.13;1.50;;;9.50;56.10;;;;;;4911366;29;20059;-67
2022/04/09 11:50:30;;;;;;;8.52;1.65;;;9.30;56.90;;;;;;4904234;29;20056;-68
2022/04/09 11:53:27;;;;;;;5.30;1.30;;;9.30;57.80;;;;;;4900021;29;20045;-68
2022/04/09 11:55:59;;;;;;;7.93;2.10;;;9.30;57.60;;;;;;4901174;29;20052;-68
2022/04/09 11:58:32;;;;;;;10.00;1.60;;;9.30;56.70;;;;;;4915190;29;20085;-68
2022/04/09 12:01:05;;;;;;;8.73;1.50;;;9.60;58.60;;;;;;4915681;29;20056;-67
2022/04/09 12:03:33;;;;;;;7.50;1.75;;;10.00;56.40;;;;;;4906080;29;20044;-66
2022/04/09 12:06:01;;;;;;;8.75;1.85;;;10.40;53.60;;;;;;4917140;29;20409;-67
2022/04/09 12:08:33;;;;;;;10.55;1.65;;;10.70;53.80;;;;;;4900991;29;20044;-67
2022/04/09 12:11:02;;;;;;;6.05;1.70;;;10.90;52.20;;;;;;4899378;29;20059;-67
2022/04/09 12:13:34;;;;;;;9.13;2.03;;;10.70;51.90;;;;;;4916621;29;20047;-67
2022/04/09 12:16:11;;;;;;;6.13;1.70;;;10.30;53.40;;;;;;4911426;29;20056;-67
2022/04/09 12:18:39;;;;;;;10.68;2.05;;;10.00;55.20;;;;;;4912985;29;20048;-67
2022/04/09 12:21:37;;;;;;;7.65;1.98;;;9.80;55.80;;;;;;4914238;29;20048;-68
2022/04/09 12:24:07;;;;;;;8.60;1.92;;;10.30;55.20;;;;;;4889049;29;20061;-68
2022/04/09 12:26:42;;;;;;;8.80;1.70;;;10.80;54.00;;;;;;4898242;29;20056;-68
2022/04/09 12:29:13;;;;;;;6.65;1.75;;;11.20;52.10;;;;;;4908264;29;20423;-68
2022/04/09 12:31:43;;;;;;;10.93;1.67;;;11.20;50.20;;;;;;4916932;29;20068;-68
2022/04/09 12:34:11;;;;;;;3.50;1.20;;;11.10;50.70;;;;;;4905693;29;20057;-68
2022/04/09 12:36:59;;;;;;;3.88;1.13;;;11.60;49.90;;;;;;4915550;29;20067;-68
2022/04/09 12:39:28;;;;;;;9.73;1.40;;;11.90;46.10;;;;;;4908646;29;20053;-69
2022/04/09 12:41:56;;;;;;;7.65;1.20;;;11.40;44.10;;;;;;4909100;29;20052;-68
2022/04/09 12:44:31;;;;;;;3.70;1.17;;;11.00;45.90;;;;;;4907368;29;20059;-69
2022/04/09 12:46:59;;;;;;;5.13;1.10;;;11.50;47.10;;;;;;4907020;29;20510;-68
2022/04/09 12:49:32;;;;;;;5.85;1.58;;;12.40;46.80;;;;;;4911938;29;20059;-68
2022/04/09 12:52:01;;;;;;;10.05;1.70;;;13.30;47.00;;;;;;4916547;29;20055;-68
2022/04/09 12:54:30;;;;;;;10.10;1.92;;;14.00;45.90;;;;;;4899298;29;20048;-68
2022/04/09 12:57:10;;;;;;;6.13;1.50;;;14.20;44.10;;;;;;4906055;29;20060;-68
2022/04/09 12:59:38;;;;;;;3.17;1.20;;;13.30;43.00;;;;;;4916530;29;20410;-68
2022/04/09 13:02:07;;;;;;;8.75;1.77;;;12.60;44.60;;;;;;4903510;29;20059;-68
2022/04/09 13:04:35;;;;;;;7.55;1.80;;;12.50;46.40;;;;;;4916126;29;20048;-68
2022/04/09 13:07:02;;;;;;;4.78;1.35;;;13.10;46.80;;;;;;4902522;29;20049;-68
2022/04/09 13:09:30;;;;;;;6.70;1.20;;;13.90;45.80;;;;;;4916265;29;20056;-67
2022/04/09 13:11:58;;;;;;;5.53;1.40;;;14.80;42.10;;;;;;4903550;29;20044;-67
2022/04/09 13:14:25;;;;;;;2.97;0.90;;;15.30;42.00;;;;;;4904685;29;20049;-67